Airport Name : Campia Turzii

Other Name : Campia Turzii

ICAO : LRCT

IATA :

FAA :

Latitude : 46.502281

Longitude : 23.885914

Country : Romania

Local Date and Time : 4/26/2018 7:07:00 AM

 

TAF (Terminal Aerodrome Forecast)

 

METAR (METeorological Aerodrome Report)

LRCT 260300Z 16002KT 0800 BCFG SKC 11/11 Q1013 AMB AMB